ニジネヴァルトフスク の空港の天気 - METARとTAF

Nizhnevartovsk ( USNN / NJC ) - ロシア ニジネヴァルトフスク
飛行場実況気象(Metar)
観測時間02/18 03:30 YEKT (02/17 22:30 UTC)
風向・風速南西 1m/s
視程8000m
天気現象弱い雪
全天の4割程度の雲 雲底高度 880m
気温-12℃
湿度92%
気圧997hPa
METARUSNN 172230Z 22001MPS 8000 -SN SCT029 M12/M13 Q0997 R21/450142 NOSIG RMK QFE743
過去の天気等 Google飛行場航空写真 Wunderground天気予報

過去48時間のMETAR

飛行場予報(TAF)
発表時間: 2/18 01:00 YEKT (2/17 20:00 UTC)
予報対象時間: 18日2時 YEKT ~ 19日2時 YEKT
風向・風速南南西 3m/s
視程4000m
天気現象弱いしゅう雪 もや
全天の8割程度の雲 雲底高度 340m
全天の4割程度の積乱雲 雲底高度 610m
18日2時 YEKT ~ 18日9時 YEKT に一時的に
風向・風速不定 1m/s
視程800m
天気現象氷霧
全天を覆う雲 鉛直視程 60m
18日11時 YEKT ~ 18日12時 YEKT に徐々に
風向・風速南南東 3m/s
TAF USNN 172000Z 1721/1821 20003MPS 4000 -SHSN BR BKN011 SCT020CB
TEMPO 1721/1804 VRB01MPS 0800 FZFG VV002
BECMG 1806/1807 16003MPS